createdAt,value
2023-05-12T00:02:04.123Z,11.75
2023-05-12T00:04:32.072Z,11.76
2023-05-12T00:07:00.189Z,11.77
2023-05-12T00:09:28.219Z,11.74
2023-05-12T00:11:57.553Z,11.76
2023-05-12T00:14:25.777Z,11.80
2023-05-12T00:16:53.881Z,11.81
2023-05-12T00:19:22.239Z,11.80
2023-05-12T00:21:50.233Z,11.79
2023-05-12T00:24:18.227Z,11.87
2023-05-12T00:26:46.271Z,11.91
2023-05-12T00:29:15.688Z,11.96
2023-05-12T00:31:43.707Z,11.96
2023-05-12T00:34:11.695Z,11.92
2023-05-12T00:36:39.979Z,11.88
2023-05-12T00:39:07.988Z,11.94
2023-05-12T00:41:36.491Z,11.94
2023-05-12T00:44:04.555Z,11.88
2023-05-12T00:46:33.970Z,11.91
2023-05-12T00:49:02.483Z,11.94
2023-05-12T00:51:30.931Z,11.94
2023-05-12T00:53:59.994Z,11.93
2023-05-12T00:56:28.399Z,11.93
2023-05-12T00:58:56.416Z,11.93
2023-05-12T01:01:24.570Z,11.88
2023-05-12T01:03:54.212Z,11.82
2023-05-12T01:06:27.186Z,11.87
2023-05-12T01:08:55.416Z,11.81
2023-05-12T01:11:23.597Z,11.86
2023-05-12T01:13:51.529Z,11.87
2023-05-12T01:16:24.004Z,11.87
2023-05-12T01:18:55.774Z,11.88
2023-05-12T01:21:23.826Z,11.89
2023-05-12T01:23:59.232Z,11.91
2023-05-12T01:26:29.886Z,11.91
2023-05-12T01:28:58.772Z,11.94
2023-05-12T01:31:27.271Z,11.97
2023-05-12T01:33:55.314Z,11.97
2023-05-12T01:36:23.346Z,11.96
2023-05-12T01:38:51.424Z,11.91
2023-05-12T01:41:19.372Z,11.88
2023-05-12T01:43:48.649Z,11.85
2023-05-12T01:46:16.631Z,11.90
2023-05-12T01:48:44.745Z,11.87
2023-05-12T01:51:12.745Z,11.87
2023-05-12T01:53:40.721Z,11.88
2023-05-12T01:56:08.812Z,11.89
2023-05-12T01:58:36.899Z,11.91
2023-05-12T02:01:06.317Z,11.91
2023-05-12T02:03:34.356Z,11.90
2023-05-12T02:06:02.452Z,11.89
2023-05-12T02:08:30.454Z,11.93
2023-05-12T02:11:06.025Z,11.96
2023-05-12T02:13:34.162Z,11.98
2023-05-12T02:16:02.717Z,11.93
2023-05-12T02:18:32.255Z,11.95
2023-05-12T02:21:00.580Z,11.96
2023-05-12T02:23:28.620Z,11.98
2023-05-12T02:25:56.592Z,11.96
2023-05-12T02:28:24.734Z,11.99
2023-05-12T02:30:53.204Z,11.98
2023-05-12T02:33:22.873Z,11.98
2023-05-12T02:35:52.310Z,11.93
2023-05-12T02:38:20.382Z,11.92
2023-05-12T02:40:48.509Z,11.96
2023-05-12T02:43:16.461Z,11.98
2023-05-12T02:45:44.459Z,11.88
2023-05-12T02:48:12.436Z,11.87
2023-05-12T02:50:40.470Z,11.88
2023-05-12T02:53:09.961Z,11.90
2023-05-12T02:55:37.950Z,11.89
2023-05-12T02:58:05.908Z,11.84
2023-05-12T03:00:33.940Z,11.86
2023-05-12T03:03:02.113Z,11.86
2023-05-12T03:05:30.119Z,11.85
2023-05-12T03:07:58.345Z,11.87
2023-05-12T03:10:27.965Z,11.81
2023-05-12T03:12:55.899Z,11.87
2023-05-12T03:15:24.312Z,11.86
2023-05-12T03:17:52.338Z,11.90
2023-05-12T03:20:20.907Z,11.86
2023-05-12T03:22:49.225Z,11.91
2023-05-12T03:25:17.749Z,11.92
2023-05-12T03:27:47.566Z,11.95
2023-05-12T03:30:16.060Z,11.95
2023-05-12T03:32:45.255Z,11.95
2023-05-12T03:35:13.305Z,11.91
2023-05-12T03:37:41.420Z,11.92
2023-05-12T03:40:10.548Z,11.92
2023-05-12T03:42:38.604Z,11.93
2023-05-12T03:45:09.398Z,11.96
2023-05-12T03:47:37.599Z,11.96
2023-05-12T03:50:06.532Z,11.94
2023-05-12T03:52:34.732Z,11.91
2023-05-12T03:55:02.669Z,11.92
2023-05-12T03:57:30.917Z,11.98
2023-05-12T03:59:58.970Z,11.98
2023-05-12T04:02:28.343Z,12.02
2023-05-12T04:04:56.434Z,12.02
2023-05-12T04:07:24.488Z,12.02
2023-05-12T04:09:52.481Z,12.04
2023-05-12T04:12:20.476Z,12.06
2023-05-12T04:14:48.538Z,11.90
2023-05-12T04:17:18.674Z,12.07
2023-05-12T04:19:48.083Z,12.07
2023-05-12T04:22:16.170Z,12.13
2023-05-12T04:24:44.136Z,12.16
2023-05-12T04:27:12.148Z,12.10
2023-05-12T04:29:40.158Z,12.48
2023-05-12T04:32:09.120Z,12.60
2023-05-12T04:34:37.342Z,12.89
2023-05-12T04:37:06.756Z,12.83
2023-05-12T04:39:34.778Z,12.99
2023-05-12T04:42:02.999Z,12.98
2023-05-12T04:44:31.183Z,12.76
2023-05-12T04:46:59.235Z,12.68
2023-05-12T04:49:27.203Z,12.62
2023-05-12T04:51:55.318Z,12.51
2023-05-12T04:54:24.816Z,12.48
2023-05-12T04:56:52.806Z,12.43
2023-05-12T04:59:20.752Z,12.50
2023-05-12T05:01:48.862Z,12.52
2023-05-12T05:04:17.015Z,12.46
2023-05-12T05:06:45.080Z,12.47
2023-05-12T05:09:13.064Z,12.53
2023-05-12T05:11:42.406Z,12.57
2023-05-12T05:14:10.438Z,12.64
2023-05-12T05:16:38.473Z,12.64
2023-05-12T05:19:09.410Z,12.68
2023-05-12T05:21:47.479Z,12.74
2023-05-12T05:24:15.611Z,12.71
2023-05-12T05:26:45.721Z,12.76
2023-05-12T05:29:13.852Z,12.80
2023-05-12T05:31:41.860Z,12.83
2023-05-12T05:34:09.864Z,12.87
2023-05-12T05:36:37.861Z,12.86
2023-05-12T05:39:05.922Z,13.00
2023-05-12T05:41:33.861Z,13.06
2023-05-12T05:44:03.235Z,13.10
2023-05-12T05:46:31.219Z,13.15
2023-05-12T05:48:59.204Z,13.18
2023-05-12T05:51:27.371Z,13.29
2023-05-12T05:53:55.329Z,13.37
2023-05-12T05:56:23.927Z,13.42
2023-05-12T05:58:52.457Z,13.47
2023-05-12T06:01:21.846Z,13.53
2023-05-12T06:03:50.009Z,13.64
2023-05-12T06:06:18.162Z,13.67
2023-05-12T06:08:46.458Z,13.78
2023-05-12T06:11:15.899Z,13.87
2023-05-12T06:13:45.203Z,13.99
2023-05-12T06:16:13.217Z,14.04
2023-05-12T06:18:42.652Z,14.15
2023-05-12T06:21:10.777Z,14.27
2023-05-12T06:23:38.756Z,14.33
2023-05-12T06:26:07.736Z,14.42
2023-05-12T06:28:35.762Z,14.54
2023-05-12T06:31:03.828Z,14.62
2023-05-12T06:33:31.784Z,14.73
2023-05-12T06:36:01.174Z,14.73
2023-05-12T06:38:29.295Z,14.82
2023-05-12T06:40:57.280Z,14.86
2023-05-12T06:43:25.604Z,14.85
2023-05-12T06:45:53.577Z,14.94
2023-05-12T06:48:21.732Z,14.99
2023-05-12T06:50:49.727Z,15.05
2023-05-12T06:53:19.112Z,15.19
2023-05-12T06:55:47.252Z,15.19
2023-05-12T06:58:15.235Z,15.34
2023-05-12T07:00:43.239Z,15.19
2023-05-12T07:03:11.281Z,15.35
2023-05-12T07:05:39.606Z,15.45
2023-05-12T07:08:07.861Z,15.50
2023-05-12T07:10:38.022Z,15.65
2023-05-12T07:13:06.086Z,15.75
2023-05-12T07:15:34.340Z,15.86
2023-05-12T07:18:02.377Z,15.91
2023-05-12T07:20:30.442Z,15.80
2023-05-12T07:22:58.578Z,15.74
2023-05-12T07:25:26.656Z,15.89
2023-05-12T07:27:56.262Z,15.89
2023-05-12T07:30:24.396Z,16.07
2023-05-12T07:32:52.965Z,16.17
2023-05-12T07:35:21.187Z,16.31
2023-05-12T07:37:49.511Z,16.35
2023-05-12T07:40:17.799Z,16.49
2023-05-12T07:42:45.890Z,16.63
2023-05-12T07:45:22.737Z,16.73
2023-05-12T07:47:51.700Z,16.65
2023-05-12T07:50:20.443Z,16.70
2023-05-12T07:52:49.893Z,16.82
2023-05-12T07:55:18.888Z,16.77
2023-05-12T07:57:47.195Z,17.01
2023-05-12T08:00:17.409Z,17.02
2023-05-12T08:02:47.005Z,17.10
2023-05-12T08:05:15.120Z,17.34
2023-05-12T08:07:43.989Z,17.45
2023-05-12T08:10:13.093Z,17.37
2023-05-12T08:12:41.458Z,17.46
2023-05-12T08:15:10.407Z,17.53
2023-05-12T08:17:39.935Z,17.58
2023-05-12T08:20:09.100Z,17.43
2023-05-12T08:22:37.186Z,17.57
2023-05-12T08:25:06.034Z,17.50
2023-05-12T08:27:34.080Z,17.64
2023-05-12T08:30:02.065Z,17.60
2023-05-12T08:32:30.105Z,17.52
2023-05-12T08:34:59.550Z,17.47
2023-05-12T08:37:28.035Z,17.42
2023-05-12T08:39:56.324Z,17.48
2023-05-12T08:42:32.254Z,17.40
2023-05-12T08:45:01.708Z,17.40
2023-05-12T08:47:30.645Z,17.35
2023-05-12T08:50:03.416Z,17.37
2023-05-12T08:52:34.490Z,17.31
2023-05-12T08:55:03.732Z,17.33
2023-05-12T08:57:32.288Z,17.40
2023-05-12T09:00:00.316Z,17.48
2023-05-12T09:02:40.941Z,17.49
2023-05-12T09:05:14.240Z,17.60
2023-05-12T09:07:44.993Z,17.68
2023-05-12T09:10:32.988Z,17.74
2023-05-12T09:13:05.842Z,17.70
2023-05-12T09:15:40.150Z,17.79
2023-05-12T09:18:08.235Z,17.81
2023-05-12T09:20:37.735Z,17.99
2023-05-12T09:23:16.515Z,18.05
2023-05-12T09:25:44.753Z,18.14
2023-05-12T09:28:12.767Z,18.18
2023-05-12T09:30:42.518Z,18.29
2023-05-12T09:33:12.253Z,18.32
2023-05-12T09:35:43.293Z,18.47
2023-05-12T09:38:12.967Z,18.43
2023-05-12T09:40:41.290Z,18.45
2023-05-12T09:43:09.858Z,18.52
2023-05-12T09:45:38.902Z,18.50
2023-05-12T09:48:11.963Z,18.45
2023-05-12T09:50:49.644Z,18.50
2023-05-12T09:53:19.167Z,18.52
2023-05-12T09:55:49.470Z,18.61
2023-05-12T09:58:18.730Z,18.75
2023-05-12T10:03:21.983Z,18.95
2023-05-12T10:05:54.170Z,18.93
2023-05-12T10:08:26.099Z,18.86
2023-05-12T10:10:56.825Z,18.84
2023-05-12T10:13:26.303Z,18.93
2023-05-12T10:15:57.779Z,19.06
2023-05-12T10:18:26.080Z,19.17
2023-05-12T10:20:57.685Z,19.26
2023-05-12T10:23:27.484Z,19.32
2023-05-12T10:25:58.626Z,19.03
2023-05-12T10:28:26.708Z,19.13
2023-05-12T10:30:55.614Z,19.25
2023-05-12T10:33:26.321Z,19.37
2023-05-12T10:35:55.809Z,19.37
2023-05-12T10:38:23.948Z,19.47
2023-05-12T10:40:58.096Z,19.56
2023-05-12T10:43:27.744Z,19.51
2023-05-12T10:46:11.733Z,19.53
2023-05-12T10:48:53.042Z,19.59
2023-05-12T10:51:23.791Z,19.68
2023-05-12T10:53:54.838Z,19.60
2023-05-12T10:56:25.197Z,19.56
2023-05-12T10:59:12.968Z,19.64
2023-05-12T11:01:43.073Z,19.70
2023-05-12T11:04:16.273Z,19.82
2023-05-12T11:06:47.157Z,19.95
2023-05-12T11:09:17.505Z,19.83
2023-05-12T11:11:45.986Z,20.00
2023-05-12T11:14:14.590Z,20.04
2023-05-12T11:16:44.351Z,20.13
2023-05-12T11:19:12.839Z,20.15
2023-05-12T11:21:41.172Z,20.05
2023-05-12T11:24:14.819Z,20.12
2023-05-12T11:26:42.809Z,20.26
2023-05-12T11:29:11.193Z,20.22
2023-05-12T11:31:39.545Z,20.23
2023-05-12T11:34:12.995Z,20.23
2023-05-12T11:36:43.298Z,20.24
2023-05-12T11:39:17.628Z,20.36
2023-05-12T11:41:46.007Z,20.33
2023-05-12T11:44:15.682Z,20.45
2023-05-12T11:46:43.790Z,20.51
2023-05-12T11:49:13.059Z,20.67
2023-05-12T11:51:44.484Z,20.71
2023-05-12T11:54:12.536Z,20.72
2023-05-12T11:56:48.922Z,20.84
2023-05-12T11:59:28.041Z,20.97
2023-05-12T12:01:56.545Z,21.05
2023-05-12T12:04:35.333Z,21.02
2023-05-12T12:07:03.708Z,21.11
2023-05-12T12:09:33.116Z,21.24
2023-05-12T12:12:03.851Z,21.33
2023-05-12T12:14:33.383Z,21.32
2023-05-12T12:17:01.536Z,21.63
2023-05-12T12:19:29.582Z,21.49
2023-05-12T12:21:58.613Z,21.66
2023-05-12T12:24:27.085Z,21.81
2023-05-12T12:26:55.130Z,22.24
2023-05-12T12:29:26.139Z,22.87
2023-05-12T12:31:54.135Z,23.90
2023-05-12T12:34:23.903Z,24.93
2023-05-12T12:36:52.626Z,26.16
2023-05-12T12:39:21.780Z,27.32
2023-05-12T12:41:50.223Z,27.25
2023-05-12T12:44:18.219Z,27.56
2023-05-12T12:46:47.674Z,28.46
2023-05-12T12:49:15.679Z,28.44
2023-05-12T12:51:46.698Z,29.61
2023-05-12T12:54:15.884Z,28.73
2023-05-12T12:56:44.329Z,28.82
2023-05-12T12:59:12.804Z,28.69
2023-05-12T13:01:40.869Z,29.22
2023-05-12T13:04:10.484Z,30.58
2023-05-12T13:06:38.437Z,30.90
2023-05-12T13:09:06.451Z,30.33
2023-05-12T13:11:34.444Z,29.80
2023-05-12T13:14:04.420Z,30.35
2023-05-12T13:16:32.606Z,30.20
2023-05-12T13:19:00.675Z,29.76
2023-05-12T13:21:30.341Z,30.73
2023-05-12T13:23:58.296Z,29.45
2023-05-12T13:26:26.688Z,30.30
2023-05-12T13:28:54.761Z,31.03
2023-05-12T13:31:22.986Z,31.12
2023-05-12T13:33:51.037Z,30.55
2023-05-12T13:36:19.034Z,31.26
2023-05-12T13:38:48.381Z,30.70
2023-05-12T13:41:16.397Z,30.36
2023-05-12T13:43:44.955Z,30.77
2023-05-12T13:46:12.988Z,31.27
2023-05-12T13:48:41.885Z,32.36
2023-05-12T13:51:09.892Z,30.81
2023-05-12T13:53:39.526Z,31.37
2023-05-12T13:56:09.724Z,31.69
2023-05-12T13:58:37.738Z,30.52
2023-05-12T14:01:08.540Z,31.29
2023-05-12T14:03:37.079Z,31.63
2023-05-12T14:06:05.694Z,31.53
2023-05-12T14:08:33.695Z,31.55
2023-05-12T14:11:01.712Z,32.76
2023-05-12T14:13:31.456Z,32.62
2023-05-12T14:15:59.458Z,32.20
2023-05-12T14:18:27.832Z,32.36
2023-05-12T14:20:55.823Z,32.86
2023-05-12T14:23:23.818Z,32.94
2023-05-12T14:25:51.828Z,32.04
2023-05-12T14:28:19.838Z,31.89
2023-05-12T14:30:49.515Z,32.01
2023-05-12T14:33:17.658Z,32.55
2023-05-12T14:35:55.711Z,33.27
2023-05-12T14:38:27.780Z,32.04
2023-05-12T14:40:55.854Z,31.96
2023-05-12T14:43:23.853Z,31.47
2023-05-12T14:45:54.867Z,30.48
2023-05-12T14:48:23.533Z,31.54
2023-05-12T14:50:53.261Z,31.67
2023-05-12T14:53:21.599Z,32.02
2023-05-12T14:55:50.154Z,30.91
2023-05-12T14:58:18.665Z,31.70
2023-05-12T15:00:47.432Z,31.32
2023-05-12T15:03:16.970Z,30.58
2023-05-12T15:06:01.593Z,31.57
2023-05-12T15:08:33.365Z,31.12
2023-05-12T15:11:01.394Z,31.05
2023-05-12T15:13:29.457Z,31.18
2023-05-12T15:15:57.632Z,31.09
2023-05-12T15:18:27.131Z,30.13
2023-05-12T15:20:55.174Z,30.50
2023-05-12T15:23:23.395Z,29.90
2023-05-12T15:25:51.446Z,30.20
2023-05-12T15:28:19.459Z,30.76
2023-05-12T15:30:55.500Z,31.27
2023-05-12T15:33:23.749Z,29.94
2023-05-12T15:35:53.066Z,29.87
2023-05-12T15:38:21.218Z,30.10
2023-05-12T15:40:49.226Z,30.88
2023-05-12T15:43:18.114Z,31.09
2023-05-12T15:45:46.153Z,30.90
2023-05-12T15:48:14.188Z,29.61
2023-05-12T15:50:42.247Z,29.47
2023-05-12T15:53:11.688Z,29.91
2023-05-12T15:55:40.409Z,29.36
2023-05-12T15:58:09.089Z,29.93
2023-05-12T16:00:37.470Z,29.36
2023-05-12T16:03:05.688Z,29.33
2023-05-12T16:05:37.728Z,28.77
2023-05-12T16:08:05.767Z,28.56
2023-05-12T16:10:35.176Z,29.02
2023-05-12T16:13:03.200Z,28.93
2023-05-12T16:15:31.228Z,28.85
2023-05-12T16:17:59.323Z,28.09
2023-05-12T16:20:27.851Z,28.80
2023-05-12T16:22:55.820Z,28.70
2023-05-12T16:25:23.911Z,28.23
2023-05-12T16:27:53.538Z,28.58
2023-05-12T16:30:21.652Z,28.63
2023-05-12T16:32:49.647Z,28.59
2023-05-12T16:35:17.826Z,28.76
2023-05-12T16:37:45.874Z,28.48
2023-05-12T16:40:14.063Z,27.77
2023-05-12T16:42:42.677Z,27.85
2023-05-12T16:45:12.982Z,28.88
2023-05-12T16:47:41.042Z,27.88
2023-05-12T16:50:10.348Z,27.84
2023-05-12T16:52:38.360Z,27.19
2023-05-12T16:55:07.362Z,27.63
2023-05-12T16:57:35.382Z,27.36
2023-05-12T17:00:05.611Z,26.55
2023-05-12T17:02:35.040Z,27.33
2023-05-12T17:05:03.363Z,27.24
2023-05-12T17:07:31.387Z,25.76
2023-05-12T17:09:59.402Z,25.21
2023-05-12T17:12:27.502Z,25.21
2023-05-12T17:15:06.980Z,24.52
2023-05-12T17:17:37.402Z,24.07
2023-05-12T17:20:07.078Z,23.53
2023-05-12T17:22:41.468Z,23.19
2023-05-12T17:25:09.966Z,22.11
2023-05-12T17:27:37.937Z,21.71
2023-05-12T17:30:06.938Z,21.68
2023-05-12T17:32:34.979Z,21.75
2023-05-12T17:35:04.656Z,21.85
2023-05-12T17:37:33.593Z,21.40
2023-05-12T17:40:01.994Z,21.01
2023-05-12T17:42:31.353Z,20.81
2023-05-12T17:44:59.744Z,20.96
2023-05-12T17:47:28.418Z,20.71
2023-05-12T17:49:56.737Z,20.41
2023-05-12T17:52:26.246Z,20.57
2023-05-12T17:54:57.260Z,20.42
2023-05-12T17:57:25.326Z,20.13
2023-05-12T17:59:53.393Z,19.76
2023-05-12T18:02:21.559Z,19.51
2023-05-12T18:04:49.994Z,19.45
2023-05-12T18:07:18.191Z,19.47
2023-05-12T18:09:47.972Z,19.16
2023-05-12T18:12:17.517Z,19.06
2023-05-12T18:14:46.154Z,18.90
2023-05-12T18:17:14.186Z,18.58
2023-05-12T18:19:42.228Z,18.54
2023-05-12T18:22:10.332Z,18.46
2023-05-12T18:24:38.314Z,18.55
2023-05-12T18:27:07.840Z,18.14
2023-05-12T18:29:35.912Z,18.24
2023-05-12T18:32:03.911Z,18.19
2023-05-12T18:34:32.065Z,18.03
2023-05-12T18:37:00.126Z,18.00
2023-05-12T18:39:28.186Z,17.60
2023-05-12T18:41:56.463Z,17.85
2023-05-12T18:44:26.343Z,17.69
2023-05-12T18:46:54.345Z,17.36
2023-05-12T18:49:22.449Z,17.39
2023-05-12T18:51:50.503Z,17.24
2023-05-12T18:54:18.474Z,17.30
2023-05-12T18:56:47.430Z,17.39
2023-05-12T18:59:15.421Z,17.16
2023-05-12T19:01:44.941Z,17.01
2023-05-12T19:04:13.194Z,16.96
2023-05-12T19:06:41.217Z,16.97
2023-05-12T19:09:09.224Z,17.04
2023-05-12T19:11:37.409Z,16.91
2023-05-12T19:14:06.319Z,16.84
2023-05-12T19:16:36.270Z,16.70
2023-05-12T19:19:06.137Z,16.68
2023-05-12T19:21:34.223Z,16.51
2023-05-12T19:24:02.241Z,16.49
2023-05-12T19:26:30.802Z,16.31
2023-05-12T19:29:00.456Z,16.26
2023-05-12T19:31:28.717Z,16.21
2023-05-12T19:33:56.809Z,16.23
2023-05-12T19:36:27.607Z,16.22
2023-05-12T19:38:59.495Z,15.92
2023-05-12T19:41:28.625Z,15.89
2023-05-12T19:43:57.058Z,15.96
2023-05-12T19:46:25.304Z,15.84
2023-05-12T19:48:53.677Z,15.84
2023-05-12T19:51:21.696Z,15.64
2023-05-12T19:53:51.030Z,15.72
2023-05-12T19:56:19.750Z,15.48
2023-05-12T19:58:47.944Z,15.44
2023-05-12T20:01:16.031Z,15.26
2023-05-12T20:03:44.137Z,15.30
2023-05-12T20:06:12.211Z,15.09
2023-05-12T20:08:40.211Z,14.94
2023-05-12T20:11:09.553Z,14.98
2023-05-12T20:13:37.553Z,15.05
2023-05-12T20:16:05.853Z,15.02
2023-05-12T20:18:33.930Z,14.93
2023-05-12T20:21:01.936Z,14.88
2023-05-12T20:23:30.017Z,14.74
2023-05-12T20:25:57.994Z,14.71
2023-05-12T20:28:28.248Z,14.66
2023-05-12T20:30:56.332Z,14.61
2023-05-12T20:33:24.357Z,14.52
2023-05-12T20:35:52.353Z,14.55
2023-05-12T20:38:20.644Z,14.32
2023-05-12T20:40:48.779Z,14.27
2023-05-12T20:43:16.856Z,14.29
2023-05-12T20:45:46.265Z,14.20
2023-05-12T20:48:14.451Z,14.05
2023-05-12T20:50:43.110Z,13.98
2023-05-12T20:53:11.220Z,14.11
2023-05-12T20:55:42.901Z,13.96
2023-05-12T20:58:10.984Z,13.79
2023-05-12T21:00:39.012Z,13.85
2023-05-12T21:03:14.400Z,13.83
2023-05-12T21:05:47.517Z,13.84
2023-05-12T21:08:15.869Z,13.85
2023-05-12T21:10:43.913Z,13.72
2023-05-12T21:13:11.890Z,13.61
2023-05-12T21:15:39.933Z,13.40
2023-05-12T21:18:09.329Z,13.43
2023-05-12T21:20:37.708Z,13.41
2023-05-12T21:23:09.302Z,13.26
2023-05-12T21:25:37.344Z,13.26
2023-05-12T21:28:06.994Z,13.34
2023-05-12T21:30:36.815Z,13.09
2023-05-12T21:33:05.649Z,13.11
2023-05-12T21:35:35.010Z,13.11
2023-05-12T21:38:02.970Z,13.08
2023-05-12T21:40:31.107Z,13.07
2023-05-12T21:42:59.203Z,12.97
2023-05-12T21:45:27.215Z,13.06
2023-05-12T21:47:55.389Z,12.86
2023-05-12T21:50:23.572Z,12.85
2023-05-12T21:52:53.104Z,12.81
2023-05-12T21:55:21.588Z,12.86
2023-05-12T21:57:49.607Z,12.95
2023-05-12T22:00:20.083Z,12.94
2023-05-12T22:02:48.821Z,12.79
2023-05-12T22:05:16.987Z,12.78
2023-05-12T22:07:44.959Z,12.59
2023-05-12T22:10:14.337Z,12.60
2023-05-12T22:12:42.471Z,12.67
2023-05-12T22:15:11.186Z,12.64
2023-05-12T22:17:39.704Z,12.60
2023-05-12T22:20:09.102Z,12.51
2023-05-12T22:22:37.087Z,12.58
2023-05-12T22:25:05.626Z,12.54
2023-05-12T22:27:34.952Z,12.54
2023-05-12T22:30:03.081Z,12.45
2023-05-12T22:32:31.180Z,12.41
2023-05-12T22:34:59.158Z,12.42
2023-05-12T22:37:27.275Z,12.29
2023-05-12T22:39:55.660Z,12.29
2023-05-12T22:42:23.617Z,12.18
2023-05-12T22:44:52.952Z,12.19
2023-05-12T22:47:20.978Z,12.13
2023-05-12T22:49:49.029Z,12.09
2023-05-12T22:52:17.393Z,12.15
2023-05-12T22:54:45.437Z,12.09
2023-05-12T22:57:13.411Z,12.15
2023-05-12T22:59:41.437Z,12.11
2023-05-12T23:02:10.794Z,11.95
2023-05-12T23:04:38.788Z,11.99
2023-05-12T23:07:09.133Z,11.92
2023-05-12T23:09:37.478Z,11.82
2023-05-12T23:12:06.434Z,11.79
2023-05-12T23:14:34.444Z,11.75
2023-05-12T23:17:02.505Z,11.65
2023-05-12T23:19:32.013Z,11.63
2023-05-12T23:22:00.067Z,11.57
2023-05-12T23:24:28.032Z,11.58
2023-05-12T23:26:56.126Z,11.57
2023-05-12T23:29:24.169Z,11.59
2023-05-12T23:31:52.186Z,11.57
2023-05-12T23:34:20.501Z,11.52
2023-05-12T23:36:49.911Z,11.55
2023-05-12T23:39:17.940Z,11.43
2023-05-12T23:41:46.137Z,11.45
2023-05-12T23:44:14.494Z,11.41
2023-05-12T23:46:42.607Z,11.40
2023-05-12T23:49:10.671Z,11.35
2023-05-12T23:51:38.730Z,11.27
2023-05-12T23:54:08.286Z,11.30
2023-05-12T23:56:36.303Z,11.32
2023-05-12T23:59:04.414Z,11.28
